Anthem Of The Seas — C6BI7 — position and weather

sailwx.info

Track history (hours):
 
Tides and Currents Weather Stations Pressure Air Temp Water Temp Dewpoint Dewpoint Depression Visibility Wind Speed Wind Dir Waves Ship Positions

Anthem Of The Seas

Last reported at 2017-Nov-19 01:18 UTC. Time now 2017-Nov-20 05:51 UTC.
Position N 39°27' W 073°55'.

Length 348 m; draft 8.8 m.

Type: Passenger vessel. MMSI: 311000274.

Date/timePositionNaut miles runAvg speedWind from/ knotsBaromVisibWave heightAir tempDewpointWater temp
2017-Nov-19 01:18N 39°27' W 073°55'819.8
2017-Nov-19 00:53N 39°35' W 073°52'820.5
2017-Nov-19 00:29N 39°43' W 073°52'1220.8
2017-Nov-18 23:55N 39°55' W 073°51'2620.9
2017-Nov-18 22:39N 40°22' W 073°48'515.5
2017-Nov-18 22:19N 40°27' W 073°49'3 9.7
2017-Nov-18 22:00N 40°28' W 073°52'815.3
2017-Nov-18 21:30N 40°32' W 074°01'714.7
2017-Nov-18 21:00N 40°39' W 074°03'1 2.0
2017-Nov-18 20:29N 40°40' W 074°04'0 0.0
2017-Nov-18 19:59N 40°40' W 074°04'0 0.0
2017-Nov-18 19:29N 40°40' W 074°04'0 0.0
2017-Nov-18 18:59N 40°40' W 074°04'0 0.0
2017-Nov-18 18:29N 40°40' W 074°04'0 0.0
2017-Nov-18 17:59N 40°40' W 074°04'0 0.0
2017-Nov-18 17:29N 40°40' W 074°04'0 0.0
2017-Nov-18 16:59N 40°40' W 074°04'0 0.0
2017-Nov-18 16:29N 40°40' W 074°04'0 0.0
2017-Nov-18 15:59N 40°40' W 074°04'0 0.0
2017-Nov-18 15:29N 40°40' W 074°04'0 0.0
2017-Nov-18 14:59N 40°40' W 074°04'0 0.0
2017-Nov-18 14:29N 40°40' W 074°04'0 0.0
2017-Nov-18 13:59N 40°40' W 074°04'0 0.0
2017-Nov-18 13:29N 40°40' W 074°04'0 0.0
2017-Nov-18 12:59N 40°40' W 074°04'0 0.0
2017-Nov-18 12:29N 40°40' W 074°04'0 0.0
2017-Nov-18 11:59N 40°40' W 074°04'0 0.0
2017-Nov-18 11:29N 40°40' W 074°04'0 0.0
2017-Nov-18 10:59N 40°40' W 074°04'0 0.5
2017-Nov-18 10:31N 40°40' W 074°04'4 7.1
2017-Nov-18 10:00N 40°36' W 074°03'815.3
2017-Nov-18 09:30N 40°30' W 073°57'510.3
2017-Nov-18 09:00N 40°28' W 073°51'4 8.3
2017-Nov-18 08:30N 40°24' W 073°47'4 8.6
2017-Nov-18 08:00N 40°20' W 073°46'4 8.8
2017-Nov-18 07:30N 40°16' W 073°46'5 9.5
2017-Nov-18 07:00N 40°11' W 073°45'815.4
2017-Nov-18 06:29N 40°03' W 073°44'816.7
2017-Nov-18 05:59N 39°55' W 073°42'816.7
2017-Nov-18 05:31N 39°47' W 073°40'816.3
2017-Nov-18 05:00N 39°39' W 073°41'816.5
2017-Nov-18 04:30N 39°31' W 073°43'  
2017-Nov-12 04:05N 38°41' W 074°09'920.1
2017-Nov-12 03:39N 38°50' W 074°06'320.2
2017-Nov-12 03:30N 38°52' W 074°05'1020.1
2017-Nov-12 02:59N 39°02' W 074°02'1020.0
2017-Nov-12 02:28N 39°13' W 073°59'1120.0
2017-Nov-12 01:54N 39°24' W 073°56'819.8
2017-Nov-12 01:30N 39°31' W 073°53'1019.9
2017-Nov-12 01:00N 39°41' W 073°52'1019.6
2017-Nov-12 00:30N 39°51' W 073°51'3513.4
2017-Nov-11 21:55N 40°25' W 073°49'4 9.9
2017-Nov-11 21:30N 40°29' W 073°53'612.0
2017-Nov-11 21:00N 40°31' W 073°60'815.6
2017-Nov-11 20:30N 40°38' W 074°03'1 2.8
2017-Nov-11 19:59N 40°40' W 074°04'0 0.0
2017-Nov-11 19:31N 40°40' W 074°04'0 0.0
2017-Nov-11 19:01N 40°40' W 074°04'0 0.0
2017-Nov-11 18:28N 40°40' W 074°04'0 0.0
2017-Nov-11 18:01N 40°40' W 074°04'0 0.0
2017-Nov-11 17:25N 40°40' W 074°04'0 0.0
2017-Nov-11 16:55N 40°40' W 074°04'0 0.0
2017-Nov-11 16:31N 40°40' W 074°04'0 0.0
2017-Nov-11 15:58N 40°40' W 074°04'0 0.0
2017-Nov-11 15:31N 40°40' W 074°04'0 0.0
2017-Nov-11 14:58N 40°40' W 074°04'0 0.0
2017-Nov-11 14:31N 40°40' W 074°04'0 0.0
2017-Nov-11 13:58N 40°40' W 074°04'0 0.0
2017-Nov-11 13:31N 40°40' W 074°04'0 0.0
2017-Nov-11 12:58N 40°40' W 074°04'0 0.0
2017-Nov-11 12:31N 40°40' W 074°04'0 0.0
2017-Nov-11 11:55N 40°40' W 074°04'0 0.0
2017-Nov-11 11:31N 40°40' W 074°04'0 0.4
2017-Nov-11 11:00N 40°40' W 074°04'2 4.3
2017-Nov-11 10:30N 40°38' W 074°03'713.9
2017-Nov-11 10:00N 40°31' W 073°60'611.5
2017-Nov-11 09:30N 40°29' W 073°53'5 9.4
2017-Nov-11 09:00N 40°27' W 073°47'4 7.8
2017-Nov-11 08:30N 40°23' W 073°47'5 9.4
2017-Nov-11 08:00N 40°18' W 073°46'5 9.9
2017-Nov-11 07:27N 40°13' W 073°45'1315.1
2017-Nov-11 06:34N 39°59' W 073°43'216.9
2017-Nov-11 06:27N 39°58' W 073°42'816.8
2017-Nov-11 06:00N 39°50' W 073°41'916.7
2017-Nov-11 05:29N 39°41' W 073°39'816.7
2017-Nov-11 05:00N 39°34' W 073°41'79816.5
2017-Nov-09 04:43N 26°31' W 076°50'417.7
2017-Nov-09 04:30N 26°28' W 076°51'917.8
2017-Nov-09 04:00N 26°19' W 076°53'917.8
2017-Nov-09 03:29N 26°10' W 076°56'  
Track history (hours):
 
Tides and Currents Weather Stations Pressure Air Temp Water Temp Dewpoint Dewpoint Depression Visibility Wind Speed Wind Dir Waves Ship Positions

Anthem Of The Seas

Last reported at 2017-Nov-19 01:18 UTC. Time now 2017-Nov-20 05:51 UTC.
Position N 39°27' W 073°55'.

Length 348 m; draft 8.8 m.

Type: Passenger vessel. MMSI: 311000274.

Date/timePositionNaut miles runAvg speedWind from/ knotsBaromVisibWave heightAir tempDewpointWater temp
2017-Nov-19 01:18N 39°27' W 073°55'819.8
2017-Nov-19 00:53N 39°35' W 073°52'820.5
2017-Nov-19 00:29N 39°43' W 073°52'1220.8
2017-Nov-18 23:55N 39°55' W 073°51'2620.9
2017-Nov-18 22:39N 40°22' W 073°48'515.5
2017-Nov-18 22:19N 40°27' W 073°49'3 9.7
2017-Nov-18 22:00N 40°28' W 073°52'815.3
2017-Nov-18 21:30N 40°32' W 074°01'714.7
2017-Nov-18 21:00N 40°39' W 074°03'1 2.0
2017-Nov-18 20:29N 40°40' W 074°04'0 0.0
2017-Nov-18 19:59N 40°40' W 074°04'0 0.0
2017-Nov-18 19:29N 40°40' W 074°04'0 0.0
2017-Nov-18 18:59N 40°40' W 074°04'0 0.0
2017-Nov-18 18:29N 40°40' W 074°04'0 0.0
2017-Nov-18 17:59N 40°40' W 074°04'0 0.0
2017-Nov-18 17:29N 40°40' W 074°04'0 0.0
2017-Nov-18 16:59N 40°40' W 074°04'0 0.0
2017-Nov-18 16:29N 40°40' W 074°04'0 0.0
2017-Nov-18 15:59N 40°40' W 074°04'0 0.0
2017-Nov-18 15:29N 40°40' W 074°04'0 0.0
2017-Nov-18 14:59N 40°40' W 074°04'0 0.0
2017-Nov-18 14:29N 40°40' W 074°04'0 0.0
2017-Nov-18 13:59N 40°40' W 074°04'0 0.0
2017-Nov-18 13:29N 40°40' W 074°04'0 0.0
2017-Nov-18 12:59N 40°40' W 074°04'0 0.0
2017-Nov-18 12:29N 40°40' W 074°04'0 0.0
2017-Nov-18 11:59N 40°40' W 074°04'0 0.0
2017-Nov-18 11:29N 40°40' W 074°04'0 0.0
2017-Nov-18 10:59N 40°40' W 074°04'0 0.5
2017-Nov-18 10:31N 40°40' W 074°04'4 7.1
2017-Nov-18 10:00N 40°36' W 074°03'815.3
2017-Nov-18 09:30N 40°30' W 073°57'510.3
2017-Nov-18 09:00N 40°28' W 073°51'4 8.3
2017-Nov-18 08:30N 40°24' W 073°47'4 8.6
2017-Nov-18 08:00N 40°20' W 073°46'4 8.8
2017-Nov-18 07:30N 40°16' W 073°46'5 9.5
2017-Nov-18 07:00N 40°11' W 073°45'815.4
2017-Nov-18 06:29N 40°03' W 073°44'816.7
2017-Nov-18 05:59N 39°55' W 073°42'816.7
2017-Nov-18 05:31N 39°47' W 073°40'816.3
2017-Nov-18 05:00N 39°39' W 073°41'816.5
2017-Nov-18 04:30N 39°31' W 073°43'  
2017-Nov-12 04:05N 38°41' W 074°09'920.1
2017-Nov-12 03:39N 38°50' W 074°06'320.2
2017-Nov-12 03:30N 38°52' W 074°05'1020.1
2017-Nov-12 02:59N 39°02' W 074°02'1020.0
2017-Nov-12 02:28N 39°13' W 073°59'1120.0
2017-Nov-12 01:54N 39°24' W 073°56'819.8
2017-Nov-12 01:30N 39°31' W 073°53'1019.9
2017-Nov-12 01:00N 39°41' W 073°52'1019.6
2017-Nov-12 00:30N 39°51' W 073°51'3513.4
2017-Nov-11 21:55N 40°25' W 073°49'4 9.9
2017-Nov-11 21:30N 40°29' W 073°53'612.0
2017-Nov-11 21:00N 40°31' W 073°60'815.6
2017-Nov-11 20:30N 40°38' W 074°03'1 2.8
2017-Nov-11 19:59N 40°40' W 074°04'0 0.0
2017-Nov-11 19:31N 40°40' W 074°04'0 0.0
2017-Nov-11 19:01N 40°40' W 074°04'0 0.0
2017-Nov-11 18:28N 40°40' W 074°04'0 0.0
2017-Nov-11 18:01N 40°40' W 074°04'0 0.0
2017-Nov-11 17:25N 40°40' W 074°04'0 0.0
2017-Nov-11 16:55N 40°40' W 074°04'0 0.0
2017-Nov-11 16:31N 40°40' W 074°04'0 0.0
2017-Nov-11 15:58N 40°40' W 074°04'0 0.0
2017-Nov-11 15:31N 40°40' W 074°04'0 0.0
2017-Nov-11 14:58N 40°40' W 074°04'0 0.0
2017-Nov-11 14:31N 40°40' W 074°04'0 0.0
2017-Nov-11 13:58N 40°40' W 074°04'0 0.0
2017-Nov-11 13:31N 40°40' W 074°04'0 0.0
2017-Nov-11 12:58N 40°40' W 074°04'0 0.0
2017-Nov-11 12:31N 40°40' W 074°04'0 0.0
2017-Nov-11 11:55N 40°40' W 074°04'0 0.0
2017-Nov-11 11:31N 40°40' W 074°04'0 0.4
2017-Nov-11 11:00N 40°40' W 074°04'2 4.3
2017-Nov-11 10:30N 40°38' W 074°03'713.9
2017-Nov-11 10:00N 40°31' W 073°60'611.5
2017-Nov-11 09:30N 40°29' W 073°53'5 9.4
2017-Nov-11 09:00N 40°27' W 073°47'4 7.8
2017-Nov-11 08:30N 40°23' W 073°47'5 9.4
2017-Nov-11 08:00N 40°18' W 073°46'5 9.9
2017-Nov-11 07:27N 40°13' W 073°45'1315.1
2017-Nov-11 06:34N 39°59' W 073°43'216.9
2017-Nov-11 06:27N 39°58' W 073°42'816.8
2017-Nov-11 06:00N 39°50' W 073°41'916.7
2017-Nov-11 05:29N 39°41' W 073°39'816.7
2017-Nov-11 05:00N 39°34' W 073°41'79816.5
2017-Nov-09 04:43N 26°31' W 076°50'417.7
2017-Nov-09 04:30N 26°28' W 076°51'917.8
2017-Nov-09 04:00N 26°19' W 076°53'917.8
2017-Nov-09 03:29N 26°10' W 076°56'  

Dump ship's entire track history